Nearby METAR Reports

 

KSJC - San Jose, California, USA
Distance from station: NØ 14km
Oppdatert: 19/09/2019 17:53
Delvis skyet
Delvis skyet
 Vind fra calm
Vind: Stille
Temperatur: 17°C
Duggpunkt: 11°C
Fuktighet: 68%
Barometer: 1014.9 hPa
Clouds: Delvis skyet
Visibility: 16 km
Cloud details: Few Clouds 335 m
Delvis skyet 488 m
2019/09/19 15:53 KSJC 191553Z 00000KT 10SM FEW011 SCT016 17/11 A2997 RMK AO2 SLP147 T01670111
KNUQ - Moffett Nas/Mtn, California, USA
Distance from station: N 14km
Oppdatert: 19/09/2019 17:56

 
Barometer: 1014.9 hPa
2019/09/19 15:56 KNUQ 191556Z A2997 RMK AO2 SLP153 PWINO $
 
KPAO - Palo Alto, California, USA
Distance from station: NNV 23km
Oppdatert: 19/09/2019 17:47
Few Clouds
Few Clouds
 Vind fra varies
Vind: varies 7 km/h
Temperatur: 17°C
Duggpunkt: 12°C
Fuktighet: 73%
Barometer: 1014.9 hPa
Clouds: Few Clouds
Visibility: 16 km
Cloud details: Few Clouds 610 m
2019/09/19 15:47 KPAO 191547Z VRB04KT 10SM FEW020 17/12 A2997
KRHV - San Jose/Reid, California, USA
Distance from station: ØNØ 19km
Oppdatert: 19/09/2019 17:50
Few Clouds
Few Clouds
 Vind fra calm
Vind: Stille
Temperatur: 17°C
Duggpunkt: 12°C
Fuktighet: 73%
Barometer: 1015.2 hPa
Clouds: Few Clouds
Visibility: 16 km
Cloud details: Few Clouds 549 m
2019/09/19 15:50 KRHV 191550Z 00000KT 10SM FEW018 17/12 A2998
 
KOAK - Oakland, California, USA
Distance from station: NNV 50km
Oppdatert: 19/09/2019 17:53
Few Clouds
Few Clouds
 Vind fra calm
Vind: Stille
Temperatur: 18°C
Duggpunkt: 13°C
Fuktighet: 73%
Barometer: 1014.9 hPa
Clouds: Few Clouds
Visibility: 16 km
Cloud details: Few Clouds 305 m
2019/09/19 15:53 KOAK 191553Z 00000KT 10SM FEW010 18/13 A2997 RMK AO2 SLP149 T01830128
KSQL - San Carlos Airpo, California, USA
Distance from station: NV 34km
Oppdatert: 19/09/2019 15:51
NOT Current

 
2019/09/19 13:51 KSQL 191351Z 10KT VRB03SM FEW010 15/12 A2996
 
KSFO - San Francisco, California, USA
Distance from station: NV 49km
Oppdatert: 19/09/2019 17:56
Few Clouds
Few Clouds
 Vind fra VNV
Vind: VNV 11 km/h
Temperatur: 18°C
Duggpunkt: 12°C
Fuktighet: 68%
Barometer: 1014.9 hPa
Clouds: Few Clouds
Visibility: 16 km
Cloud details: Few Clouds 457 m
2019/09/19 15:56 KSFO 191556Z 30006KT 10SM FEW015 18/12 A2997 RMK AO2 SLP147 T01780117
KE16 - San Martin, California, USA
Distance from station: ØSØ 43km
Oppdatert: 05/08/2019 19:10
NOT Current
Klart
Klart
 Vind fra ØSØ
Vind: ØSØ 19 km/h
Temperatur: 19°C
Duggpunkt: 14°C
Fuktighet: 73%
Barometer: 1016.9 hPa
Clouds: Klart
Visibility: 16 km
2019/08/05 17:10 KE16 051710Z AUTO 12010KT 10SM CLR 19/14 A3003 RMK AO2
 
KWVI - Watsonville, California, USA
Distance from station: SSØ 44km
Oppdatert: 13/09/2019 23:53
NOT Current
Klart
Klart
 Vind fra V
Vind: V 17 km/h
Temperatur: 37°C
Duggpunkt: 4°C
Fuktighet: 13%
Barometer: 1013.5 hPa
Clouds: Klart
Visibility: 16 km
2019/09/13 21:53 KWVI 132153Z AUTO 27009KT 10SM CLR 37/04 A2993 RMK AO2 SLP133 T03670039
KHAF - Half Moon Bay, California, USA
Distance from station: VNV 50km
Oppdatert: 19/09/2019 18:40
Klart
Klart
 Vind fra N
Vind: N 15 km/h
Temperatur: 16°C
Duggpunkt: 13°C
Fuktighet: 83%
Barometer: 1015.2 hPa
Clouds: Klart
Visibility: 11 km
2019/09/19 16:40 KHAF 191640Z AUTO 35008KT 320V020 7SM CLR 16/13 A2998 RMK AO2
 
KHWD - Hayward, California, USA
Distance from station: N 44km
Oppdatert: 19/09/2019 17:54
Klart
Klart
 Vind fra calm
Vind: Stille
Temperatur: 17°C
Duggpunkt: 13°C
Fuktighet: 77%
Barometer: 1014.9 hPa
Clouds: Klart
Visibility: 16 km
2019/09/19 15:54 KHWD 191554Z 00000KT 10SM CLR 17/13 A2997 RMK AO2 SLP157 T01720128
KLVK - Livermore, California, USA
Distance from station: NNØ 51km
Oppdatert: 19/09/2019 17:53
Klart
Klart
 Vind fra calm
Vind: Stille
Temperatur: 15°C
Duggpunkt: 12°C
Fuktighet: 82%
Barometer: 1014.9 hPa
Clouds: Klart
Visibility: 16 km
2019/09/19 15:53 KLVK 191553Z 00000KT 10SM CLR 15/12 A2997 RMK AO2 SLP145 T01500122